Prospect Park, Pennsylvania
Current Conditions -  °F | °C
As of 12:54 AM on Wednesday 22 Oct 2014 (Local Time) from KPHL Reporting Station
Overcast Overcast  
Wind Chill: 58°   Ceiling: 19000
Heat Index: 58°   Visibility: 10mi
Dew Point: 50°   Wind: 9mph
Humidity: 75%   Direction: 10°N
Pressure: 29.87"   Gusts: NA
Location:  39.89°N, 75.31°W
Report Text: KPHL 220454Z 01008KT 10SM FEW150 BKN190 OVC250 14/10 A2987 RMK AO2 SLP113 T01440100 402110111 $
Loading
Personal Weather Stations






























Interactive Weather Map
Tropical Storm Tracking
New forecast layout! Learn more

10-Day Weather Forecast

Advertisements
Track Severe Weather on mobile